Text analysis for David (opticalwings)

Return to profile of David (opticalwings)

View texts not yet raced by David (opticalwings)

Sorted by best race

Rank Text Best WPM Overall Difficulty Relative Speed Text Length Races Average WPM Last race
1. When the night has come and the land is dark and the moon is... 152.52 1.0881 0.1001 170 1 152.52 2017-10-01
2. Look Dave, I can see you're really upset about this. I hones... 147.71 1.0227 0.1328 272 1 147.71 2017-09-30
3. What have I got to do to make you love me? What have I got t... 141.59 1.0695 0.0347 163 1 141.59 2017-09-30
4. When I left my home and my family, I was no more than a boy ... 141.25 1.0481 0.0589 257 1 141.25 2017-10-01
5. Well this seems to be a waste of my time. That is nine hundr... 141.19 0.9731 0.1634 307 1 141.19 2017-09-30
6. We'd like to know a little bit about you for our files. We'd... 141.02 1.0364 0.0659 202 1 141.02 2017-09-30
7. Sometimes I wake up by the door, that heart you caught must ... 141.01 0.8856 0.1646 154 1 141.01 2017-09-30
8. All I could think of was that the teachers must've found the... 140.52 1.0358 0.0675 323 1 140.52 2017-10-01
9. Our files show that the Smuggler is whacked-out paranoid. Wa... 137.94 0.9337 0.1134 208 1 137.94 2017-09-30
10. The Canadians were glad to keep mum. The scheme would boost ... 137.65 0.9603 0.1207 215 1 137.65 2017-09-30
11. Welcome to the world of international intrigue where today's... 137.43 0.9736 0.0648 276 1 137.43 2017-09-30
12. Baby, what's it gonna hurt if they don't know, makin' everyb... 135.88 1.0194 0.0366 267 1 135.88 2017-10-01
13. I believe that you are sincere and good at heart. If you do ... 135.05 1.0019 0.0641 474 1 135.05 2017-09-30
14. Teachers never die. They live in your memory forever. They w... 134.53 1.0567 -0.0001 359 1 134.53 2017-10-01
15. Crying wolf? You listen to me, you idiot! My child is sick. ... 134.48 0.9475 0.0691 237 1 134.48 2017-09-30
16. Quality humor doesn't just deliver one gag and then tax the ... 134.06 0.9697 0.0743 249 1 134.06 2017-09-30
17. I was just a child when the stars fell from the skies, but I... 133.49 1.0394 0.0064 325 1 133.49 2017-09-30
18. The idea behind each one was we took a film that we like and... 133.38 1.0462 -0.0059 231 1 133.38 2017-10-01
19. Punishment and negative reinforcement are opposites. Punishm... 133.25 1.0338 0.0161 338 1 133.25 2017-09-30
20. Turn me loose from your hands, let me fly to distant lands o... 132.65 1.0636 -0.0237 164 1 132.65 2017-09-30
21. The latest wave of globalization strongly challenges the ins... 132.60 0.9185 0.1006 420 1 132.60 2017-09-30
22. All we need for morality is contained in these words: make o... 132.34 1.0689 -0.0300 191 1 132.34 2017-09-30
23. That's what makes you dangerous. It's not the mask, it's not... 131.91 0.9657 0.0269 234 1 131.91 2017-09-30
24. Let's say life is this square of the sidewalk. We're born at... 131.27 0.9723 0.0308 433 1 131.27 2017-09-30
25. I got in touch with a friend of mine who works at a research... 130.84 0.9273 0.0622 306 1 130.84 2017-10-01
26. Traveling through hyperspace ain't like dusting crops, boy! ... 130.81 0.9157 0.0709 208 1 130.81 2017-09-30
27. I'm alive in a city in a country of the world. And I want to... 130.70 1.0807 -0.0501 362 1 130.70 2017-09-30
28. I guess this time you're really leaving. I heard your suitca... 129.60 0.9802 -0.0005 286 1 129.60 2017-09-30
29. If humans one day become extinct from a catastrophic collisi... 129.52 0.9201 0.0837 481 1 129.52 2017-09-30
30. The reason that most people don't possess these extraordinar... 129.50 0.9614 0.0186 317 1 129.50 2017-09-30
31. Therefore a man shall leave his father and mother and be joi... 128.73 1.1522 -0.1493 109 1 128.73 2017-09-30
32. I hope I cut myself shaving tomorrow. I hope it bleeds all d... 128.32 1.0102 -0.0127 156 1 128.32 2017-09-30
33. I been slumping all season but now I found a reason. I struc... 127.98 0.9644 0.0013 250 1 127.98 2017-09-30
34. If we were left solely to the wordy wit of legislators in Co... 127.61 0.9683 0.0011 227 1 127.61 2017-09-30
35. It also occurred to him that throughout history, humankind h... 127.21 0.9520 0.0461 235 1 127.21 2017-09-30
36. I was involved, deeply involved, in a deception. I have dece... 126.96 0.9842 -0.0173 475 1 126.96 2017-09-30
37. A sensitive and honest-minded man, if he's concerned about e... 126.49 0.9968 -0.0049 236 1 126.49 2017-09-30
38. "Without pain, how could we know joy?" This is an old argume... 126.26 0.9309 0.0352 285 1 126.26 2017-09-30
39. Kryten: Sir, I just can't eat any more raw coffee. Lister: [... 126.13 0.8317 0.1416 486 1 126.13 2017-10-13
40. My tea's gone cold, I'm wondering why I got out of bed at al... 126.05 1.0220 -0.0457 244 1 126.05 2017-09-30
41. We are amidst strange beings, in a strange land. The flow of... 126.04 0.9471 0.0090 385 1 126.04 2017-09-30
42. Because some men aren't looking for anything logical, like m... 125.38 1.0031 -0.0286 170 1 125.38 2017-09-30
43. This town is very peaceful. Yes, and that is why there are s... 125.34 1.0197 -0.0408 306 1 125.34 2017-09-30
44. Some men dream of money, some men dream of love. My father d... 124.35 0.9424 -0.0050 243 1 124.35 2017-10-01
45. You're right, I did lose a million dollars last year. I expe... 123.95 0.9871 -0.0105 253 1 123.95 2017-10-01
46. The Inca believed that if one did not give thanks and obedie... 123.23 1.0077 -0.0084 250 1 123.23 2017-09-30
47. It's like this: You're eight years old. He misses your birth... 123.10 0.9465 -0.0107 471 1 123.10 2017-09-30
48. On recovering my senses, I hastened to quit a place where I ... 122.85 1.0112 -0.0503 226 1 122.85 2017-09-30
49. I know that the idea of raising well-rounded, smarter kids c... 122.38 1.0328 -0.0423 356 1 122.38 2017-09-30
50. For more than a year, ominous rumors had been privately circ... 121.75 0.9058 0.0276 477 1 121.75 2017-09-30
51. I don't believe in painted roses or bleeding hearts while bu... 120.63 1.0444 -0.1130 197 1 120.63 2017-09-30
52. Beauty is in the eye of the beholder. Yet there are those wh... 120.49 1.0329 -0.0872 399 1 120.49 2017-10-01
53. Do not go gentle into that good night. Old age should burn a... 120.37 1.0373 -0.0863 541 1 120.37 2017-09-30
54. Persons attempting to find a motive in this narrative will b... 118.82 1.0444 -0.1114 186 1 118.82 2017-09-30
55. It soared, a bird, it held its flight, a swift pure cry, soa... 118.40 0.9305 0.0023 405 1 118.40 2017-09-30
56. When beetles fight these battles in a bottle with their padd... 117.67 0.9801 -0.0493 209 1 117.67 2017-09-30
57. Neal was a felon. He was convicted on bond forgery. And as y... 117.58 0.9350 -0.0486 311 1 117.58 2017-09-30
58. A little boy went out to play. When he opened his door, he s... 117.39 0.9965 -0.0888 168 1 117.39 2017-09-30
59. I am invisible, understand, simply because people refuse to ... 116.98 0.9838 -0.0589 348 1 116.98 2017-09-30
60. Don't bother trying to explain your emotions. Live everythin... 115.13 0.9895 -0.1087 240 1 115.13 2017-09-30
61. He was close, real close. I couldn't see him yet, but I coul... 113.45 1.0540 -0.1687 249 1 113.45 2017-09-30
62. You're right, Will. I can't do this proof. But you can and w... 113.14 1.0485 -0.1734 211 1 113.14 2017-09-30
63. You should have acted. They're already here. The Elder Scrol... 112.65 0.9289 -0.0718 316 1 112.65 2017-09-30
64. Let me put it this way, Mr. Amor. The 9000 series is the mos... 111.86 0.9523 -0.0782 245 1 111.86 2017-09-30
65. I guess this is just another lost cause, Mr. Paine. All you ... 109.88 1.0182 -0.1628 307 1 109.88 2017-09-30
66. Suppose you suggest to your husband that subsidized llama fa... 107.54 0.9336 -0.0913 255 1 107.54 2017-09-30
67. When you're being followed by the police, it's important to ... 106.90 0.9505 -0.1463 214 1 106.90 2017-09-30
68. First in my class here at MIT. Got skills, I'm a champion of... 80.02 0.7821 -0.1868 298 1 80.02 2017-09-30